Time;durP1;ratioP1;P1;durP2;ratioP2;P2;SDS_P1;SDS_P2;PMS_P1;PMS_P2;Temp;Humidity;BMP_temperature;BMP_pressure;BME280_temperature;BME280_humidity;BME280_pressure;Samples;Min_cycle;Max_cycle;Signal;HPM_P1;HPM_P2
2023/07/08 00:01:43;;;;;;;3.88;3.35;;;18.30;1.00;;;;;;5094100;28;20028;-64
2023/07/08 00:04:08;;;;;;;4.50;3.53;;;18.30;99.90;;;;;;5094837;28;20028;-63
2023/07/08 00:06:35;;;;;;;7.55;3.50;;;18.30;99.90;;;;;;5094728;28;20035;-64
2023/07/08 00:09:01;;;;;;;6.40;3.58;;;18.30;99.90;;;;;;5094794;28;20032;-64
2023/07/08 00:11:28;;;;;;;7.35;3.58;;;18.30;99.90;;;;;;5095057;28;20081;-64
2023/07/08 00:13:54;;;;;;;8.25;3.95;;;18.30;99.90;;;;;;5094800;28;20036;-63
2023/07/08 00:16:20;;;;;;;6.68;3.50;;;18.30;1.00;;;;;;5094594;28;20486;-64
2023/07/08 00:18:46;;;;;;;5.47;3.35;;;18.40;99.90;;;;;;5094347;28;20077;-64
2023/07/08 00:21:15;;;;;;;4.15;3.50;;;18.30;99.90;;;;;;5094617;28;20023;-64
2023/07/08 00:23:45;;;;;;;6.95;3.42;;;18.30;1.00;;;;;;5094567;28;20477;-64
2023/07/08 00:26:17;;;;;;;7.32;3.85;;;18.20;1.00;;;;;;5094503;28;20024;-64
2023/07/08 00:28:42;;;;;;;4.63;3.72;;;18.10;99.90;;;;;;5094413;28;20051;-64
2023/07/08 00:31:10;;;;;;;4.60;3.33;;;18.10;99.90;;;;;;5094173;28;20512;-64
2023/07/08 00:33:35;;;;;;;8.27;3.60;;;18.00;99.90;;;;;;5094462;28;20028;-65
2023/07/08 00:36:01;;;;;;;6.15;3.60;;;18.00;99.90;;;;;;5094382;28;20028;-64
2023/07/08 00:38:28;;;;;;;5.80;3.80;;;18.00;99.90;;;;;;5093882;28;20383;-64
2023/07/08 00:41:04;;;;;;;5.38;3.85;;;17.90;76.90;;;;;;5094177;28;20078;-64
2023/07/08 00:43:37;;;;;;;5.13;2.92;;;17.90;99.90;;;;;;5094285;28;20058;-64
2023/07/08 00:46:31;;;;;;;6.45;3.42;;;17.90;99.90;;;;;;5094069;28;20386;-64
2023/07/08 00:51:45;;;;;;;5.60;3.50;;;17.90;99.90;;;;;;5111174;27;20388;-65
2023/07/08 00:54:14;;;;;;;5.10;3.80;;;17.90;99.90;;;;;;5111355;28;20031;-65
2023/07/08 00:56:48;;;;;;;5.57;3.42;;;17.90;99.90;;;;;;5111147;28;20374;-64
2023/07/08 00:59:20;;;;;;;7.47;3.80;;;18.00;99.90;;;;;;5111282;28;20074;-66
2023/07/08 01:01:47;;;;;;;9.48;3.53;;;18.00;99.90;;;;;;5111187;28;20035;-65
2023/07/08 01:04:18;;;;;;;5.25;3.28;;;18.00;99.90;;;;;;5109885;28;20123;-65
2023/07/08 01:06:52;;;;;;;5.53;3.78;;;18.00;99.90;;;;;;5110985;28;20504;-65
2023/07/08 01:09:18;;;;;;;4.97;3.30;;;18.00;99.90;;;;;;5109699;28;20077;-65
2023/07/08 01:11:44;;;;;;;6.50;3.90;;;18.10;99.90;;;;;;5110892;28;20020;-66
2023/07/08 01:14:15;;;;;;;5.30;3.47;;;18.10;1.00;;;;;;5110786;28;20486;-65
2023/07/08 01:16:42;;;;;;;5.57;3.58;;;18.00;99.90;;;;;;5110826;28;20027;-64
2023/07/08 01:19:15;;;;;;;6.00;3.60;;;18.00;1.00;;;;;;5110746;28;20031;-65
2023/07/08 01:21:46;;;;;;;;;;;18.00;99.90;;;;;;5111238;28;20394;-65
2023/07/08 01:24:11;;;;;;;5.15;3.72;;;18.00;1.00;;;;;;5110794;28;19904;-65
2023/07/08 01:26:43;;;;;;;3.95;3.22;;;18.00;1.00;;;;;;5110198;28;20028;-65
2023/07/08 01:29:09;;;;;;;4.68;3.28;;;17.90;99.90;;;;;;5111189;28;20028;-65
2023/07/08 01:31:35;;;;;;;7.13;3.22;;;17.90;99.90;;;;;;5110179;28;20024;-65
2023/07/08 01:34:01;;;;;;;7.13;3.00;;;18.00;99.90;;;;;;5110327;28;20371;-65
2023/07/08 01:36:34;;;;;;;7.00;3.95;;;18.00;1.00;;;;;;5110490;28;20122;-65
2023/07/08 01:38:59;;;;;;;7.20;3.70;;;18.00;1.00;;;;;;5110735;28;20488;-65
2023/07/08 01:41:25;;;;;;;4.57;3.33;;;18.10;99.90;;;;;;5110241;28;20036;-65
2023/07/08 01:43:50;;;;;;;5.13;3.40;;;18.10;99.90;;;;;;5110089;28;20055;-65
2023/07/08 01:46:22;;;;;;;5.30;3.40;;;18.20;1.00;;;;;;5110003;28;20036;-65
2023/07/08 01:48:54;;;;;;;10.50;4.00;;;18.20;24.50;;;;;;5110317;28;20059;-64
2023/07/08 01:51:21;;;;;;;4.75;3.17;;;18.10;1.00;;;;;;5109922;28;20090;-65
2023/07/08 01:53:47;;;;;;;4.45;3.83;;;18.20;1.00;;;;;;5110209;28;20031;-65
2023/07/08 01:56:14;;;;;;;6.13;3.50;;;18.20;1.00;;;;;;5109803;28;20386;-65
2023/07/08 01:58:40;;;;;;;4.07;3.25;;;18.20;1.00;;;;;;5109702;28;20028;-65
2023/07/08 02:01:06;;;;;;;7.18;3.25;;;18.20;99.90;;;;;;5108047;28;20036;-65
2023/07/08 02:03:32;;;;;;;5.70;3.60;;;18.30;99.90;;;;;;5096277;28;20053;-65
2023/07/08 02:05:57;;;;;;;4.60;3.42;;;18.20;99.90;;;;;;5096170;28;20452;-65
2023/07/08 02:08:23;;;;;;;8.05;3.40;;;18.30;99.90;;;;;;5096202;28;20035;-65
2023/07/08 02:10:51;;;;;;;6.40;3.50;;;18.30;99.90;;;;;;5096187;28;20032;-65
2023/07/08 02:13:17;;;;;;;4.30;3.42;;;18.30;99.90;;;;;;5095964;28;20023;-65
2023/07/08 02:15:43;;;;;;;5.80;3.20;;;18.20;1.00;;;;;;5095938;28;20032;-65
2023/07/08 02:18:09;;;;;;;6.28;3.50;;;18.20;1.00;;;;;;5095877;28;20496;-64
2023/07/08 02:20:34;;;;;;;5.63;3.30;;;18.10;99.90;;;;;;5095911;28;20024;-65
2023/07/08 02:23:00;;;;;;;7.05;3.60;;;18.10;1.00;;;;;;5094545;28;20028;-64
2023/07/08 02:25:25;;;;;;;5.40;3.30;;;18.00;1.00;;;;;;5095673;28;20054;-64
2023/07/08 02:27:54;;;;;;;9.18;3.88;;;18.00;99.90;;;;;;5095783;28;20513;-65
2023/07/08 02:30:20;;;;;;;4.20;3.28;;;18.00;99.90;;;;;;5095673;28;20103;-65
2023/07/08 02:32:56;;;;;;;5.45;3.17;;;18.00;99.90;;;;;;5095882;28;20048;-66
2023/07/08 02:35:24;;;;;;;4.70;3.28;;;17.90;1.00;;;;;;5095722;28;20020;-65
2023/07/08 02:37:49;;;;;;;5.38;3.55;;;17.90;1.00;;;;;;5095468;28;20021;-65
2023/07/08 02:40:15;;;;;;;5.40;3.53;;;17.80;99.90;;;;;;5095544;28;20493;-64
2023/07/08 02:42:40;;;;;;;5.10;3.70;;;17.70;1.00;;;;;;5095294;28;20058;-65
2023/07/08 02:45:07;;;;;;;6.65;3.63;;;17.70;1.00;;;;;;5095451;28;20024;-64
2023/07/08 02:47:33;;;;;;;9.05;3.90;;;17.60;99.90;;;;;;5095198;28;20024;-65
2023/07/08 02:49:58;;;;;;;6.18;3.20;;;17.60;1.00;;;;;;5095074;28;20176;-65
2023/07/08 02:52:24;;;;;;;4.35;3.55;;;17.60;99.90;;;;;;5095478;28;20035;-65
2023/07/08 02:54:49;;;;;;;5.50;3.40;;;17.50;99.90;;;;;;5095246;28;20020;-65
2023/07/08 02:57:15;;;;;;;6.45;4.00;;;17.40;99.90;;;;;;5095472;28;20056;-65
2023/07/08 02:59:40;;;;;;;5.07;3.42;;;17.30;1.00;;;;;;5095367;28;20035;-65
2023/07/08 03:02:06;;;;;;;7.00;3.55;;;17.20;1.00;;;;;;5095102;28;20028;-65
2023/07/08 03:04:31;;;;;;;5.55;3.70;;;17.20;1.00;;;;;;5095311;28;20433;-65
2023/07/08 03:06:57;;;;;;;9.82;3.97;;;17.20;1.00;;;;;;5095211;28;20484;-65
2023/07/08 03:09:23;;;;;;;8.50;4.43;;;17.20;1.00;;;;;;5095093;28;20031;-65
2023/07/08 03:11:48;;;;;;;4.38;3.80;;;17.10;99.90;;;;;;5095168;28;20389;-65
2023/07/08 03:14:13;;;;;;;6.30;3.90;;;17.10;99.90;;;;;;5093973;28;20024;-65
2023/07/08 03:16:39;;;;;;;6.28;3.60;;;17.10;1.00;;;;;;5094785;28;20388;-65
2023/07/08 03:19:05;;;;;;;5.03;3.80;;;17.10;99.90;;;;;;5094777;28;20037;-65
2023/07/08 03:21:31;;;;;;;8.73;4.13;;;17.10;1.00;;;;;;5094697;28;20547;-65
2023/07/08 03:23:57;;;;;;;6.13;3.63;;;17.10;1.00;;;;;;5094599;28;20028;-65
2023/07/08 03:26:24;;;;;;;7.60;3.95;;;17.10;1.00;;;;;;5094531;28;20028;-65
2023/07/08 03:28:50;;;;;;;6.80;4.10;;;17.10;1.00;;;;;;5094553;28;20614;-65
2023/07/08 03:31:17;;;;;;;8.55;3.60;;;17.10;99.90;;;;;;5094578;28;20028;-66
2023/07/08 03:33:43;;;;;;;6.18;4.10;;;17.10;1.00;;;;;;5094719;28;20024;-65
2023/07/08 03:36:13;;;;;;;8.52;4.05;;;17.10;1.00;;;;;;5094391;28;20032;-64
2023/07/08 03:38:39;;;;;;;6.25;3.92;;;17.00;1.00;;;;;;5094354;28;20016;-65
2023/07/08 03:41:05;;;;;;;7.97;3.95;;;17.00;9.10;;;;;;5094341;28;20134;-65
2023/07/08 03:43:30;;;;;;;7.80;4.07;;;17.00;1.00;;;;;;5094291;28;20024;-65
2023/07/08 03:45:56;;;;;;;7.35;3.95;;;17.00;93.40;;;;;;5094336;28;20178;-64
2023/07/08 03:48:21;;;;;;;4.75;3.78;;;17.00;17.20;;;;;;5094439;28;20023;-65
2023/07/08 03:50:47;;;;;;;7.90;3.72;;;16.90;23.00;;;;;;5093941;28;20066;-65
2023/07/08 03:53:13;;;;;;;6.13;3.50;;;16.90;99.90;;;;;;5094229;28;20028;-64
2023/07/08 03:55:38;;;;;;;6.60;4.20;;;16.80;99.90;;;;;;5093074;28;20050;-65
2023/07/08 03:58:04;;;;;;;6.35;3.95;;;16.80;99.90;;;;;;5094068;28;20020;-65
2023/07/08 04:00:29;;;;;;;7.97;4.30;;;16.80;99.90;;;;;;5094045;28;20426;-65
2023/07/08 04:02:56;;;;;;;5.50;4.30;;;16.90;99.90;;;;;;5093935;28;20035;-65
2023/07/08 04:05:23;;;;;;;6.60;4.22;;;16.80;99.90;;;;;;5093966;28;20474;-65
2023/07/08 04:07:48;;;;;;;6.18;3.75;;;16.90;99.90;;;;;;5093965;28;20554;-65
2023/07/08 04:10:15;;;;;;;4.70;3.60;;;16.90;99.90;;;;;;5093866;28;20099;-65
2023/07/08 04:12:41;;;;;;;7.60;3.95;;;17.00;99.90;;;;;;5093971;28;20567;-65
2023/07/08 04:15:09;;;;;;;6.68;4.20;;;17.00;99.90;;;;;;5093978;28;20028;-65
2023/07/08 04:17:40;;;;;;;8.65;4.15;;;17.20;99.90;;;;;;5093591;28;20396;-65
2023/07/08 04:20:06;;;;;;;4.57;3.80;;;17.20;99.90;;;;;;5093700;28;20019;-65
2023/07/08 04:22:31;;;;;;;5.47;3.50;;;17.30;99.90;;;;;;5093632;28;20024;-65
2023/07/08 04:24:57;;;;;;;7.60;3.70;;;17.50;99.90;;;;;;5093165;28;20566;-65
2023/07/08 04:27:22;;;;;;;5.53;3.65;;;17.50;1.00;;;;;;5093650;28;20048;-65
2023/07/08 04:29:48;;;;;;;6.28;4.00;;;17.70;99.90;;;;;;5093767;28;20028;-65
2023/07/08 04:32:14;;;;;;;7.22;3.85;;;17.80;99.90;;;;;;5093605;28;20020;-65
2023/07/08 04:34:39;;;;;;;7.50;3.55;;;18.00;99.90;;;;;;5073233;28;20028;-64
2023/07/08 04:37:05;;;;;;;6.22;4.28;;;18.30;99.90;;;;;;5073262;28;20525;-65
2023/07/08 04:39:31;;;;;;;4.47;3.63;;;18.60;99.90;;;;;;5073295;28;20382;-64
2023/07/08 04:41:57;;;;;;;5.07;3.40;;;18.90;1.00;;;;;;5072972;28;20028;-65
2023/07/08 04:44:23;;;;;;;4.07;3.22;;;19.60;99.90;;;;;;5073237;28;20028;-65
2023/07/08 04:46:52;;;;;;;5.75;3.38;;;20.90;1.00;;;;;;5073465;28;20021;-66
2023/07/08 04:49:18;;;;;;;4.80;3.20;;;22.30;99.90;;;;;;5073159;28;20031;-65
2023/07/08 04:51:44;;;;;;;7.07;3.55;;;23.20;1.00;;;;;;5073164;28;20111;-63
2023/07/08 04:54:10;;;;;;;4.88;3.00;;;24.20;99.90;;;;;;5073089;28;20029;-63
2023/07/08 04:56:41;;;;;;;3.70;3.00;;;24.60;99.90;;;;;;5073271;28;20500;-64
2023/07/08 04:59:10;;;;;;;4.40;3.10;;;25.70;99.90;;;;;;5073280;28;20063;-64
2023/07/08 05:01:36;;;;;;;6.15;3.50;;;26.40;99.90;;;;;;5073002;28;20029;-64
2023/07/08 05:04:04;;;;;;;4.63;3.17;;;26.30;1.00;;;;;;5072985;28;20034;-64
2023/07/08 05:06:30;;;;;;;5.18;2.95;;;26.40;1.00;;;;;;5072945;28;20021;-65
2023/07/08 05:08:56;;;;;;;4.45;3.00;;;26.80;1.00;;;;;;5072976;28;20074;-64
2023/07/08 05:11:21;;;;;;;5.88;3.15;;;27.00;1.00;;;;;;5072937;28;20032;-64
2023/07/08 05:13:47;;;;;;;5.00;3.03;;;27.30;1.00;;;;;;5073224;28;20036;-64
2023/07/08 05:16:12;;;;;;;5.78;2.92;;;27.50;1.00;;;;;;5072921;28;20029;-64
2023/07/08 05:18:38;;;;;;;3.00;2.50;;;27.70;1.00;;;;;;5072845;28;20059;-64
2023/07/08 05:21:04;;;;;;;7.57;3.20;;;26.80;1.00;;;;;;5072799;28;20509;-64
2023/07/08 05:23:30;;;;;;;3.95;2.70;;;26.30;1.00;;;;;;5072817;28;20479;-64
2023/07/08 05:26:00;;;;;;;8.00;2.80;;;26.80;1.00;;;;;;5073078;28;20020;-64
2023/07/08 05:28:25;;;;;;;4.65;2.65;;;26.30;1.00;;;;;;5072777;28;20024;-64
2023/07/08 05:30:57;;;;;;;4.13;2.70;;;25.50;1.00;;;;;;5072756;28;20020;-64
2023/07/08 05:33:24;;;;;;;3.78;3.03;;;25.60;1.00;;;;;;5072973;28;20029;-64
2023/07/08 05:35:50;;;;;;;6.82;3.20;;;25.50;1.00;;;;;;5071416;28;20032;-64
2023/07/08 05:38:16;;;;;;;3.25;2.80;;;26.10;1.00;;;;;;5075974;28;20025;-64
2023/07/08 05:40:41;;;;;;;7.38;2.85;;;26.80;1.00;;;;;;5076377;28;20028;-64
2023/07/08 05:43:07;;;;;;;3.03;2.58;;;27.60;1.00;;;;;;5076542;28;20083;-63
2023/07/08 05:45:33;;;;;;;4.82;2.65;;;28.50;1.00;;;;;;5076457;28;20089;-64
2023/07/08 05:47:59;;;;;;;6.45;2.70;;;29.00;1.00;;;;;;5076508;28;20039;-64
2023/07/08 05:50:24;;;;;;;4.88;2.97;;;29.40;1.00;;;;;;5076029;28;20135;-65
2023/07/08 05:52:50;;;;;;;4.80;3.47;;;29.50;1.00;;;;;;5076198;28;20122;-65
2023/07/08 05:55:15;;;;;;;6.45;2.70;;;29.20;1.00;;;;;;5076495;28;20474;-65
2023/07/08 05:57:41;;;;;;;7.90;3.15;;;30.00;1.00;;;;;;5076096;28;20050;-64
2023/07/08 06:00:08;;;;;;;3.85;3.03;;;30.80;1.00;;;;;;5076097;28;20037;-64
2023/07/08 06:02:33;;;;;;;6.00;3.00;;;30.50;1.00;;;;;;5076078;28;20474;-64
2023/07/08 06:04:59;;;;;;;3.17;2.88;;;30.50;1.00;;;;;;5076181;28;20122;-64
2023/07/08 06:07:24;;;;;;;4.43;3.00;;;30.80;2.80;;;;;;5076055;28;20051;-64
2023/07/08 06:09:51;;;;;;;5.97;2.80;;;31.10;3.80;;;;;;5076074;28;20410;-64
2023/07/08 06:12:16;;;;;;;4.32;3.00;;;31.30;1.00;;;;;;5075828;28;20449;-64
2023/07/08 06:14:42;;;;;;;4.53;2.75;;;31.00;1.00;;;;;;5075955;28;20059;-64
2023/07/08 06:17:07;;;;;;;3.92;2.88;;;30.50;1.00;;;;;;5075945;28;20029;-64
2023/07/08 06:19:33;;;;;;;8.73;2.90;;;31.40;1.00;;;;;;5075870;28;20024;-65
2023/07/08 06:21:59;;;;;;;4.43;3.55;;;31.40;1.00;;;;;;5075562;28;20541;-65
2023/07/08 06:24:24;;;;;;;5.38;2.97;;;31.40;1.00;;;;;;5075398;28;20077;-65
2023/07/08 06:26:50;;;;;;;5.45;3.13;;;31.50;1.00;;;;;;5075838;28;20497;-65
2023/07/08 06:29:15;;;;;;;4.40;2.70;;;31.80;1.00;;;;;;5075622;28;20028;-64
2023/07/08 06:31:41;;;;;;;5.55;2.92;;;31.50;1.00;;;;;;5075167;28;20025;-64
2023/07/08 06:34:07;;;;;;;5.07;3.22;;;31.70;1.00;;;;;;5075292;28;20050;-64
2023/07/08 06:36:33;;;;;;;6.05;3.00;;;31.60;1.00;;;;;;5075625;28;20020;-64
2023/07/08 06:38:58;;;;;;;6.70;3.63;;;31.90;1.00;;;;;;5075385;28;20021;-65
2023/07/08 06:41:24;;;;;;;5.88;3.08;;;32.30;1.00;;;;;;5075394;28;20576;-65
2023/07/08 06:43:50;;;;;;;5.72;2.97;;;31.70;1.00;;;;;;5075277;28;20047;-65
2023/07/08 06:46:16;;;;;;;3.25;2.95;;;;;;;;;;5075789;28;20372;-65
2023/07/08 06:48:41;;;;;;;5.38;2.80;;;32.70;1.00;;;;;;5075072;28;20028;-65
2023/07/08 06:51:07;;;;;;;6.60;3.53;;;32.70;1.00;;;;;;5074842;28;20131;-65
2023/07/08 06:53:32;;;;;;;5.22;3.17;;;32.90;1.00;;;;;;5075304;28;20021;-64
2023/07/08 06:55:59;;;;;;;4.75;3.05;;;32.30;1.00;;;;;;5075080;28;20134;-65
2023/07/08 06:58:24;;;;;;;4.25;3.17;;;32.30;1.00;;;;;;5074954;28;20027;-65
2023/07/08 07:00:50;;;;;;;4.30;2.95;;;32.70;1.00;;;;;;5074679;28;20028;-65
2023/07/08 07:03:15;;;;;;;8.45;3.30;;;32.80;1.00;;;;;;5075057;28;20056;-65
2023/07/08 07:05:42;;;;;;;7.10;3.03;;;33.30;1.00;;;;;;5074806;28;20034;-65
2023/07/08 07:08:08;;;;;;;3.95;3.47;;;33.50;1.00;;;;;;5074775;28;20025;-65
2023/07/08 07:10:34;;;;;;;4.90;3.38;;;33.40;1.00;;;;;;5074439;28;20367;-65
2023/07/08 07:13:00;;;;;;;8.50;3.40;;;34.10;1.00;;;;;;5074916;28;20024;-64
2023/07/08 07:15:25;;;;;;;6.85;3.25;;;34.10;1.00;;;;;;5074678;28;20020;-64
2023/07/08 07:17:51;;;;;;;8.57;3.17;;;34.50;1.00;;;;;;5074797;28;20576;-64
2023/07/08 07:20:17;;;;;;;8.50;3.30;;;34.70;1.00;;;;;;5074655;28;20036;-64
2023/07/08 07:22:42;;;;;;;5.90;3.40;;;34.60;1.00;;;;;;5074689;28;20040;-64
2023/07/08 07:25:08;;;;;;;6.80;3.38;;;34.80;1.00;;;;;;5074414;28;20028;-64
2023/07/08 07:27:34;;;;;;;5.43;3.60;;;34.40;1.00;;;;;;5074415;28;20040;-64
2023/07/08 07:29:59;;;;;;;6.50;3.80;;;34.60;1.00;;;;;;5074331;28;20033;-64
2023/07/08 07:32:25;;;;;;;3.97;3.58;;;34.20;1.00;;;;;;5074338;28;20453;-64
2023/07/08 07:34:52;;;;;;;6.28;3.25;;;34.10;1.00;;;;;;5074336;28;20039;-65
2023/07/08 07:37:20;;;;;;;5.45;3.92;;;33.10;1.00;;;;;;5074240;28;20055;-64
2023/07/08 07:39:45;;;;;;;4.00;3.20;;;33.80;1.00;;;;;;5074348;28;20023;-64
2023/07/08 07:42:13;;;;;;;7.65;4.00;;;34.20;1.00;;;;;;5074049;28;20103;-65
2023/07/08 07:44:39;;;;;;;5.45;3.47;;;35.10;1.00;;;;;;5074175;28;20044;-64
2023/07/08 07:47:06;;;;;;;4.72;3.25;;;34.60;1.00;;;;;;5074000;28;20428;-64
2023/07/08 07:49:32;;;;;;;7.72;3.25;;;34.10;1.00;;;;;;5073689;28;20029;-64
2023/07/08 07:51:58;;;;;;;5.10;3.55;;;35.30;1.00;;;;;;5073979;28;20044;-64
2023/07/08 07:54:23;;;;;;;5.10;3.60;;;35.50;1.00;;;;;;5073910;28;20620;-64
2023/07/08 07:56:49;;;;;;;5.50;3.47;;;34.80;1.00;;;;;;5073915;28;20086;-65
2023/07/08 07:59:14;;;;;;;5.13;3.95;;;35.00;1.00;;;;;;5073769;28;20060;-64
2023/07/08 08:01:41;;;;;;;4.80;3.75;;;34.60;1.00;;;;;;5073719;28;20109;-64
2023/07/08 08:04:08;;;;;;;12.23;4.45;;;34.90;1.00;;;;;;5073664;28;20036;-64
2023/07/08 08:06:34;;;;;;;7.00;4.00;;;35.50;1.00;;;;;;5073827;28;20028;-64
2023/07/08 08:08:59;;;;;;;5.85;3.72;;;36.40;1.00;;;;;;5073639;28;20028;-64
2023/07/08 08:11:25;;;;;;;9.02;3.90;;;35.10;5.70;;;;;;5073279;28;20394;-64
2023/07/08 08:13:51;;;;;;;10.15;4.22;;;36.00;14.70;;;;;;5073495;28;20544;-65
2023/07/08 08:16:17;;;;;;;4.82;3.92;;;35.90;14.70;;;;;;5073533;28;20086;-64
2023/07/08 08:18:43;;;;;;;8.95;3.90;;;36.40;13.80;;;;;;5073479;28;20024;-64
2023/07/08 08:21:08;;;;;;;6.20;4.20;;;35.80;11.50;;;;;;5073624;28;20064;-66
2023/07/08 08:23:34;;;;;;;5.57;4.20;;;35.80;1.00;;;;;;5073418;28;20115;-64
2023/07/08 08:25:59;;;;;;;6.55;4.30;;;35.70;1.00;;;;;;5073400;28;20042;-63
2023/07/08 08:28:25;;;;;;;8.43;4.03;;;35.80;11.90;;;;;;5073588;28;20459;-64
2023/07/08 08:30:51;;;;;;;6.43;3.95;;;36.50;1.00;;;;;;5073166;28;20032;-65
2023/07/08 08:33:18;;;;;;;7.80;4.25;;;36.30;1.00;;;;;;5073418;28;20036;-64
2023/07/08 08:35:44;;;;;;;8.15;4.07;;;35.90;1.00;;;;;;5073262;28;20024;-65
2023/07/08 08:38:09;;;;;;;5.20;4.70;;;35.80;1.00;;;;;;5073471;28;20051;-64
2023/07/08 08:40:35;;;;;;;5.75;4.38;;;36.20;10.60;;;;;;5073178;28;20024;-64
2023/07/08 08:43:04;;;;;;;8.65;4.80;;;36.50;1.00;;;;;;5073184;28;20039;-64
2023/07/08 08:45:36;;;;;;;6.90;4.40;;;36.60;14.60;;;;;;5073043;28;20036;-65
2023/07/08 08:48:05;;;;;;;5.53;4.22;;;36.60;13.90;;;;;;5073155;28;20029;-65
2023/07/08 08:53:22;;;;;;;4.72;4.30;;;37.10;14.10;;;;;;5090761;28;20932;-64
2023/07/08 08:55:59;;;;;;;5.43;4.53;;;36.90;16.10;;;;;;5091080;28;20585;-63
2023/07/08 08:58:51;;;;;;;7.10;4.78;;;36.90;14.30;;;;;;5090779;28;20031;-64
2023/07/08 09:01:17;;;;;;;8.65;4.85;;;36.90;21.10;;;;;;5090523;28;20033;-64
2023/07/08 09:03:49;;;;;;;5.50;4.47;;;36.80;14.90;;;;;;5090446;28;20032;-64
2023/07/08 09:06:22;;;;;;;6.03;4.80;;;37.10;17.80;;;;;;5090268;28;20024;-64
2023/07/08 09:08:50;;;;;;;6.78;4.68;;;36.40;17.30;;;;;;5090845;28;20029;-64
2023/07/08 09:11:41;;;;;;;5.93;4.60;;;36.90;18.20;;;;;;5090425;28;20534;-64
2023/07/08 09:14:16;;;;;;;4.88;4.35;;;36.40;16.30;;;;;;5090414;28;20048;-64
2023/07/08 09:16:51;;;;;;;8.98;4.47;;;35.80;14.50;;;;;;5090383;28;20031;-64
2023/07/08 09:19:40;;;;;;;5.72;4.65;;;35.60;16.10;;;;;;5090588;28;20073;-64
2023/07/08 09:22:30;;;;;;;5.68;4.53;;;36.10;16.90;;;;;;5090137;28;20024;-64
2023/07/08 09:25:21;;;;;;;6.03;4.50;;;36.60;18.20;;;;;;5089802;28;20028;-65
2023/07/08 09:27:47;;;;;;;5.13;4.63;;;36.30;16.40;;;;;;5090335;28;20028;-65
2023/07/08 09:30:20;;;;;;;7.80;4.75;;;36.50;21.10;;;;;;5090098;28;20390;-64
2023/07/08 09:32:46;;;;;;;7.30;4.93;;;36.60;22.80;;;;;;5089954;28;20032;-64
2023/07/08 09:35:37;;;;;;;9.98;5.05;;;37.00;19.80;;;;;;5090013;28;20025;-64
2023/07/08 09:38:07;;;;;;;5.68;4.75;;;37.80;15.80;;;;;;5090020;28;20034;-65
2023/07/08 09:40:33;;;;;;;6.95;4.85;;;37.80;22.90;;;;;;5090077;28;20031;-65
2023/07/08 09:43:09;;;;;;;5.57;4.90;;;38.20;19.70;;;;;;5089787;28;20024;-64
2023/07/08 09:45:47;;;;;;;6.05;4.53;;;38.10;19.50;;;;;;5089785;28;20043;-65
2023/07/08 09:48:17;;;;;;;5.03;4.53;;;37.90;21.50;;;;;;5088519;28;20497;-64
2023/07/08 09:50:44;;;;;;;8.32;4.97;;;38.10;22.70;;;;;;5089670;28;20546;-64
2023/07/08 09:53:13;;;;;;;10.10;5.10;;;38.40;21.00;;;;;;5089335;28;20048;-64
2023/07/08 09:55:38;;;;;;;11.88;5.10;;;38.50;21.40;;;;;;5089625;28;20035;-65
2023/07/08 09:58:04;;;;;;;6.38;5.50;;;37.90;21.90;;;;;;5089626;28;20025;-64
2023/07/08 10:00:34;;;;;;;6.95;5.28;;;37.40;26.10;;;;;;5089749;28;20027;-65
2023/07/08 10:03:05;;;;;;;7.60;5.75;;;37.50;12.60;;;;;;5085587;28;20020;-65
2023/07/08 10:05:41;;;;;;;7.35;4.90;;;37.30;22.80;;;;;;5076278;28;20440;-64
2023/07/08 10:08:16;;;;;;;8.07;6.03;;;37.30;26.50;;;;;;5075913;28;20025;-65
2023/07/08 10:10:44;;;;;;;6.03;5.25;;;37.80;26.90;;;;;;5075957;28;20036;-65
2023/07/08 10:13:49;;;;;;;6.82;4.88;;;38.10;13.00;;;;;;5075766;28;20025;-65
2023/07/08 10:16:33;;;;;;;6.32;5.18;;;38.40;1.00;;;;;;5075859;28;20058;-64
2023/07/08 10:18:59;;;;;;;8.50;6.07;;;38.10;14.50;;;;;;5075610;28;20021;-65
2023/07/08 10:22:05;;;;;;;6.05;5.10;;;38.00;10.90;;;;;;5075705;28;20028;-65
2023/07/08 10:25:11;;;;;;;5.72;5.18;;;37.60;11.40;;;;;;5075705;28;20035;-64
2023/07/08 10:28:16;;;;;;;11.32;5.60;;;38.00;15.50;;;;;;5075561;28;20475;-65
2023/07/08 10:31:07;;;;;;;8.70;5.60;;;38.20;13.80;;;;;;5075594;28;20041;-65
2023/07/08 10:33:46;;;;;;;7.32;5.85;;;37.90;12.70;;;;;;5075598;28;20028;-65
2023/07/08 10:36:26;;;;;;;8.15;5.75;;;37.50;13.50;;;;;;5075360;28;20031;-65
2023/07/08 10:39:21;;;;;;;10.48;5.72;;;38.10;14.20;;;;;;5075503;28;20516;-65
2023/07/08 10:41:59;;;;;;;7.95;5.82;;;37.50;15.50;;;;;;5075261;28;20381;-65
2023/07/08 10:44:34;;;;;;;7.93;5.32;;;37.70;13.90;;;;;;5075315;28;20060;-65
2023/07/08 10:47:16;;;;;;;7.93;5.75;;;37.80;15.30;;;;;;5075166;28;20466;-64
2023/07/08 10:49:57;;;;;;;8.38;6.00;;;37.00;13.30;;;;;;5075121;28;20112;-65
2023/07/08 10:52:51;;;;;;;6.40;5.80;;;36.30;18.60;;;;;;5074955;28;20080;-65
2023/07/08 10:55:45;;;;;;;9.82;6.55;;;36.40;18.50;;;;;;5073535;28;20070;-64
2023/07/08 10:58:41;;;;;;;6.85;5.93;;;36.30;21.00;;;;;;5075185;28;20031;-65
2023/07/08 11:01:28;;;;;;;9.50;7.05;;;36.30;17.50;;;;;;5074960;28;20145;-64
2023/07/08 11:04:07;;;;;;;7.30;6.47;;;35.70;20.40;;;;;;5073791;28;20020;-66
2023/07/08 11:06:58;;;;;;;8.25;7.45;;;35.60;17.50;;;;;;5074803;28;20474;-63
2023/07/08 11:09:38;;;;;;;7.63;6.80;;;35.60;16.10;;;;;;5074718;28;20031;-64
2023/07/08 11:12:28;;;;;;;9.75;7.18;;;35.20;15.30;;;;;;5074698;28;20032;-65
2023/07/08 11:15:06;;;;;;;10.27;7.47;;;35.10;14.80;;;;;;5073605;28;20059;-64
2023/07/08 11:17:41;;;;;;;8.70;6.47;;;35.10;15.30;;;;;;5074641;28;20020;-64
2023/07/08 11:20:43;;;;;;;8.70;6.90;;;34.90;16.90;;;;;;5074698;28;20035;-65
2023/07/08 11:23:38;;;;;;;8.77;7.13;;;35.10;8.90;;;;;;5074439;28;20071;-64
2023/07/08 11:26:20;;;;;;;8.23;7.20;;;35.10;18.40;;;;;;5074178;28;20037;-64
2023/07/08 11:28:46;;;;;;;11.80;7.60;;;35.20;28.90;;;;;;5073116;28;20032;-64
2023/07/08 11:31:14;;;;;;;9.15;7.30;;;35.40;31.00;;;;;;5074241;28;20040;-64
2023/07/08 11:33:41;;;;;;;12.07;7.07;;;35.20;30.60;;;;;;5072969;28;20119;-64
2023/07/08 11:36:08;;;;;;;10.20;7.47;;;35.50;31.70;;;;;;5074230;28;20029;-64
2023/07/08 11:38:35;;;;;;;8.88;7.28;;;35.20;31.50;;;;;;5074191;28;20020;-66
2023/07/08 11:41:11;;;;;;;11.38;7.45;;;35.00;29.20;;;;;;5074312;28;20111;-64
2023/07/08 11:43:45;;;;;;;9.50;7.57;;;34.90;31.90;;;;;;5074031;28;20020;-64
2023/07/08 11:46:17;;;;;;;9.50;7.63;;;34.80;27.50;;;;;;5074222;28;20034;-65
2023/07/08 11:48:47;;;;;;;9.18;7.65;;;35.10;27.10;;;;;;5074164;28;20051;-64
2023/07/08 11:51:20;;;;;;;10.50;8.25;;;35.30;27.70;;;;;;5073679;28;20066;-64
2023/07/08 11:53:50;;;;;;;11.07;8.00;;;35.30;32.70;;;;;;5074011;28;20028;-64
2023/07/08 11:59:14;;;;;;;10.10;7.72;;;35.00;31.00;;;;;;5111160;27;20291;-64
2023/07/08 12:01:52;;;;;;;11.38;8.38;;;35.10;12.50;;;;;;5111287;28;20477;-64
2023/07/08 12:04:28;;;;;;;10.40;8.43;;;34.60;14.10;;;;;;5110960;28;20069;-63
2023/07/08 12:07:14;;;;;;;10.55;7.95;;;34.90;13.00;;;;;;5110897;28;20039;-65
2023/07/08 12:09:58;;;;;;;10.80;8.30;;;35.00;3.30;;;;;;5110753;28;20024;-64
2023/07/08 12:12:31;;;;;;;11.25;8.27;;;35.00;5.00;;;;;;5109894;28;20032;-65
2023/07/08 12:15:23;;;;;;;11.90;8.32;;;34.60;9.20;;;;;;5111059;27;20469;-64
2023/07/08 12:17:53;;;;;;;9.17;7.63;;;34.80;10.80;;;;;;5110808;28;20032;-64
2023/07/08 12:20:24;;;;;;;11.88;8.18;;;34.40;6.80;;;;;;5110607;28;20051;-64
2023/07/08 12:22:50;;;;;;;9.60;7.85;;;34.50;7.10;;;;;;5109768;28;20413;-64
2023/07/08 12:25:19;;;;;;;9.82;7.55;;;34.50;7.50;;;;;;5110615;28;20362;-64
2023/07/08 12:27:46;;;;;;;12.48;7.90;;;34.70;9.10;;;;;;5109426;28;20024;-65
2023/07/08 12:30:13;;;;;;;11.50;7.78;;;35.10;1.30;;;;;;5109399;28;20565;-65
2023/07/08 12:32:40;;;;;;;10.70;8.13;;;35.30;1.10;;;;;;5110511;28;20109;-64
2023/07/08 12:35:30;;;;;;;10.95;7.68;;;34.90;1.00;;;;;;5110264;28;20034;-65
2023/07/08 12:38:00;;;;;;;12.35;7.97;;;35.10;8.00;;;;;;5110419;28;20482;-64
2023/07/08 12:40:27;;;;;;;8.82;7.93;;;34.80;8.10;;;;;;5110432;28;20020;-65
2023/07/08 12:42:54;;;;;;;9.43;8.05;;;35.00;8.40;;;;;;5110403;28;20028;-64
2023/07/08 12:45:21;;;;;;;9.00;7.65;;;34.90;10.70;;;;;;5110289;28;20024;-65
2023/07/08 12:47:48;;;;;;;10.57;8.27;;;34.60;9.00;;;;;;5110194;28;20028;-64
2023/07/08 12:50:14;;;;;;;9.68;7.85;;;34.50;10.30;;;;;;5110189;28;20020;-64
2023/07/08 12:52:42;;;;;;;12.40;7.47;;;34.60;11.50;;;;;;5110300;28;20394;-64
2023/07/08 12:55:10;;;;;;;11.13;8.25;;;34.80;10.30;;;;;;5108904;28;20118;-64
2023/07/08 12:57:37;;;;;;;14.02;8.23;;;34.90;23.10;;;;;;5109726;28;20051;-64
2023/07/08 13:00:03;;;;;;;10.73;8.13;;;34.80;21.20;;;;;;5110009;28;20020;-65
2023/07/08 13:02:31;;;;;;;12.43;8.00;;;34.70;26.40;;;;;;5110144;28;20016;-65
2023/07/08 13:05:00;;;;;;;10.13;7.78;;;34.80;27.00;;;;;;5109945;28;20473;-65
2023/07/08 13:07:36;;;;;;;9.73;8.05;;;34.80;27.60;;;;;;5108771;28;20027;-65
2023/07/08 13:10:04;;;;;;;12.75;8.02;;;34.60;27.70;;;;;;5097461;28;20028;-65
2023/07/08 13:12:32;;;;;;;12.40;8.32;;;34.70;28.00;;;;;;5096449;28;20062;-65